Terminal Aerodrome Forecast
Issued by NWS Wilmington, OH

Current Version | Previous Version | Graphics & Text | Print | Product List | Glossary On
Versions: 1 2 3 4 5 6 7 8 9 10 11 12 13 14 15 16 17 18 19 20 21 22 23 24 25 26 27 28
000
FTUS41 KILN 140800 AAA
TAFCVG
TAF AMD
KCVG 140825Z 1408/1512 18012KT P6SM OVC150
     FM140900 18022G35KT P6SM -SHRA BKN050 OVC120
     FM141100 20015G25KT P6SM -SHRA OVC050
     FM141700 24015G23KT P6SM VCTS SCT025 OVC040CB
     FM142200 29014G25KT P6SM -RA SCT010 OVC025
     FM150200 33016G25KT 5SM -RA BR OVC008
     FM151000 34016KT P6SM BKN020=

USA.gov is the U.S. government's official web portal to all federal, state and local government web resources and services.